sensor_id;sensor_type;location;lat;lon;timestamp;P1;durP1;ratioP1;P2;durP2;ratioP2
24008;SDS011;12217;50.792;4.372;2023-05-31T00:02:12;9.85;;;7.60;;
24008;SDS011;12217;50.792;4.372;2023-05-31T00:04:38;7.85;;;7.05;;
24008;SDS011;12217;50.792;4.372;2023-05-31T00:07:04;8.48;;;6.85;;
24008;SDS011;12217;50.792;4.372;2023-05-31T00:09:30;10.05;;;7.72;;
24008;SDS011;12217;50.792;4.372;2023-05-31T00:11:56;11.23;;;7.80;;
24008;SDS011;12217;50.792;4.372;2023-05-31T00:14:21;9.43;;;6.97;;
24008;SDS011;12217;50.792;4.372;2023-05-31T00:16:47;8.20;;;7.40;;
24008;SDS011;12217;50.792;4.372;2023-05-31T00:19:13;7.97;;;7.13;;
24008;SDS011;12217;50.792;4.372;2023-05-31T00:21:38;8.10;;;7.30;;
24008;SDS011;12217;50.792;4.372;2023-05-31T00:24:04;9.85;;;7.30;;
24008;SDS011;12217;50.792;4.372;2023-05-31T00:26:30;8.73;;;7.88;;
24008;SDS011;12217;50.792;4.372;2023-05-31T00:28:55;8.70;;;7.78;;
24008;SDS011;12217;50.792;4.372;2023-05-31T00:31:21;7.97;;;7.10;;
24008;SDS011;12217;50.792;4.372;2023-05-31T00:33:46;8.18;;;7.38;;
24008;SDS011;12217;50.792;4.372;2023-05-31T00:36:12;9.43;;;7.70;;
24008;SDS011;12217;50.792;4.372;2023-05-31T00:38:37;9.15;;;7.40;;
24008;SDS011;12217;50.792;4.372;2023-05-31T00:41:03;8.55;;;7.47;;
24008;SDS011;12217;50.792;4.372;2023-05-31T00:43:29;8.48;;;7.55;;
24008;SDS011;12217;50.792;4.372;2023-05-31T00:45:54;8.60;;;7.80;;
24008;SDS011;12217;50.792;4.372;2023-05-31T00:48:20;10.50;;;8.23;;
24008;SDS011;12217;50.792;4.372;2023-05-31T00:50:46;10.00;;;8.40;;
24008;SDS011;12217;50.792;4.372;2023-05-31T00:53:14;8.85;;;7.95;;
24008;SDS011;12217;50.792;4.372;2023-05-31T00:55:39;9.07;;;7.55;;
24008;SDS011;12217;50.792;4.372;2023-05-31T00:58:05;9.18;;;8.27;;
24008;SDS011;12217;50.792;4.372;2023-05-31T01:00:31;10.63;;;7.90;;
24008;SDS011;12217;50.792;4.372;2023-05-31T01:02:57;8.52;;;7.72;;
24008;SDS011;12217;50.792;4.372;2023-05-31T01:05:27;8.95;;;7.07;;
24008;SDS011;12217;50.792;4.372;2023-05-31T01:07:53;9.00;;;8.10;;
24008;SDS011;12217;50.792;4.372;2023-05-31T01:10:18;11.95;;;8.10;;
24008;SDS011;12217;50.792;4.372;2023-05-31T01:15:46;8.73;;;7.90;;
24008;SDS011;12217;50.792;4.372;2023-05-31T01:20:57;10.13;;;8.20;;
24008;SDS011;12217;50.792;4.372;2023-05-31T01:23:31;9.30;;;8.30;;
24008;SDS011;12217;50.792;4.372;2023-05-31T01:29:13;9.38;;;8.38;;
24008;SDS011;12217;50.792;4.372;2023-05-31T01:31:41;8.73;;;7.93;;
24008;SDS011;12217;50.792;4.372;2023-05-31T01:34:09;9.63;;;8.75;;
24008;SDS011;12217;50.792;4.372;2023-05-31T01:36:35;10.48;;;7.75;;
24008;SDS011;12217;50.792;4.372;2023-05-31T01:39:01;10.48;;;8.15;;
24008;SDS011;12217;50.792;4.372;2023-05-31T01:41:28;9.13;;;8.07;;
24008;SDS011;12217;50.792;4.372;2023-05-31T01:43:56;9.13;;;8.23;;
24008;SDS011;12217;50.792;4.372;2023-05-31T01:46:22;9.52;;;8.48;;
24008;SDS011;12217;50.792;4.372;2023-05-31T01:48:48;9.45;;;8.43;;
24008;SDS011;12217;50.792;4.372;2023-05-31T01:51:15;11.50;;;8.73;;
24008;SDS011;12217;50.792;4.372;2023-05-31T01:53:42;9.23;;;8.10;;
24008;SDS011;12217;50.792;4.372;2023-05-31T01:56:08;9.18;;;8.27;;
24008;SDS011;12217;50.792;4.372;2023-05-31T01:58:38;10.00;;;8.38;;
24008;SDS011;12217;50.792;4.372;2023-05-31T02:01:10;9.15;;;8.23;;
24008;SDS011;12217;50.792;4.372;2023-05-31T02:03:39;9.75;;;8.75;;
24008;SDS011;12217;50.792;4.372;2023-05-31T02:06:05;10.00;;;8.98;;
24008;SDS011;12217;50.792;4.372;2023-05-31T02:08:31;11.27;;;9.07;;
24008;SDS011;12217;50.792;4.372;2023-05-31T02:10:57;10.57;;;9.15;;
24008;SDS011;12217;50.792;4.372;2023-05-31T02:13:24;10.93;;;9.02;;
24008;SDS011;12217;50.792;4.372;2023-05-31T02:15:52;9.80;;;8.80;;
24008;SDS011;12217;50.792;4.372;2023-05-31T02:18:19;9.85;;;8.85;;
24008;SDS011;12217;50.792;4.372;2023-05-31T02:20:44;9.90;;;8.90;;
24008;SDS011;12217;50.792;4.372;2023-05-31T02:23:10;10.13;;;9.23;;
24008;SDS011;12217;50.792;4.372;2023-05-31T02:25:36;10.45;;;9.30;;
24008;SDS011;12217;50.792;4.372;2023-05-31T02:28:01;9.40;;;8.40;;
24008;SDS011;12217;50.792;4.372;2023-05-31T02:30:28;10.70;;;9.00;;
24008;SDS011;12217;50.792;4.372;2023-05-31T02:32:55;10.48;;;9.38;;
24008;SDS011;12217;50.792;4.372;2023-05-31T02:35:20;10.38;;;9.32;;
24008;SDS011;12217;50.792;4.372;2023-05-31T02:37:46;11.77;;;9.77;;
24008;SDS011;12217;50.792;4.372;2023-05-31T02:40:12;10.10;;;9.10;;
24008;SDS011;12217;50.792;4.372;2023-05-31T02:42:39;10.18;;;9.18;;
24008;SDS011;12217;50.792;4.372;2023-05-31T02:45:06;10.65;;;9.52;;
24008;SDS011;12217;50.792;4.372;2023-05-31T02:47:33;11.05;;;9.85;;
24008;SDS011;12217;50.792;4.372;2023-05-31T02:50:00;11.13;;;10.02;;
24008;SDS011;12217;50.792;4.372;2023-05-31T02:52:26;11.23;;;10.13;;
24008;SDS011;12217;50.792;4.372;2023-05-31T02:54:51;12.52;;;9.85;;
24008;SDS011;12217;50.792;4.372;2023-05-31T02:57:17;10.10;;;9.10;;
24008;SDS011;12217;50.792;4.372;2023-05-31T02:59:43;11.38;;;10.18;;
24008;SDS011;12217;50.792;4.372;2023-05-31T03:02:09;11.02;;;9.93;;
24008;SDS011;12217;50.792;4.372;2023-05-31T03:04:35;10.93;;;9.82;;
24008;SDS011;12217;50.792;4.372;2023-05-31T03:07:01;11.77;;;10.43;;
24008;SDS011;12217;50.792;4.372;2023-05-31T03:09:26;11.10;;;10.00;;
24008;SDS011;12217;50.792;4.372;2023-05-31T03:11:52;11.93;;;10.75;;
24008;SDS011;12217;50.792;4.372;2023-05-31T03:14:18;12.40;;;10.52;;
24008;SDS011;12217;50.792;4.372;2023-05-31T03:16:43;11.57;;;10.38;;
24008;SDS011;12217;50.792;4.372;2023-05-31T03:19:10;12.35;;;10.70;;
24008;SDS011;12217;50.792;4.372;2023-05-31T03:21:37;11.75;;;10.70;;
24008;SDS011;12217;50.792;4.372;2023-05-31T03:24:03;12.35;;;11.07;;
24008;SDS011;12217;50.792;4.372;2023-05-31T03:26:29;15.05;;;11.48;;
24008;SDS011;12217;50.792;4.372;2023-05-31T03:28:54;12.73;;;11.20;;
24008;SDS011;12217;50.792;4.372;2023-05-31T03:31:20;12.55;;;11.20;;
24008;SDS011;12217;50.792;4.372;2023-05-31T03:33:45;12.40;;;10.70;;
24008;SDS011;12217;50.792;4.372;2023-05-31T03:36:11;12.10;;;10.90;;
24008;SDS011;12217;50.792;4.372;2023-05-31T03:38:37;12.07;;;10.80;;
24008;SDS011;12217;50.792;4.372;2023-05-31T03:41:02;11.45;;;10.35;;
24008;SDS011;12217;50.792;4.372;2023-05-31T03:43:28;13.10;;;11.60;;
24008;SDS011;12217;50.792;4.372;2023-05-31T03:45:53;12.88;;;11.30;;
24008;SDS011;12217;50.792;4.372;2023-05-31T03:48:19;13.07;;;11.77;;
24008;SDS011;12217;50.792;4.372;2023-05-31T03:50:45;13.98;;;12.10;;
24008;SDS011;12217;50.792;4.372;2023-05-31T03:53:10;13.32;;;11.90;;
24008;SDS011;12217;50.792;4.372;2023-05-31T03:55:36;13.85;;;12.10;;
24008;SDS011;12217;50.792;4.372;2023-05-31T03:58:02;13.00;;;11.60;;
24008;SDS011;12217;50.792;4.372;2023-05-31T04:00:28;13.32;;;12.00;;
24008;SDS011;12217;50.792;4.372;2023-05-31T04:02:54;13.85;;;12.45;;
24008;SDS011;12217;50.792;4.372;2023-05-31T04:05:19;13.25;;;12.00;;
24008;SDS011;12217;50.792;4.372;2023-05-31T04:07:45;15.68;;;12.25;;
24008;SDS011;12217;50.792;4.372;2023-05-31T04:10:11;13.90;;;12.50;;
24008;SDS011;12217;50.792;4.372;2023-05-31T04:12:36;13.15;;;11.85;;
24008;SDS011;12217;50.792;4.372;2023-05-31T04:15:02;13.68;;;12.38;;
24008;SDS011;12217;50.792;4.372;2023-05-31T04:17:28;14.57;;;13.18;;
24008;SDS011;12217;50.792;4.372;2023-05-31T04:19:53;14.75;;;13.15;;
24008;SDS011;12217;50.792;4.372;2023-05-31T04:22:19;15.02;;;13.52;;
24008;SDS011;12217;50.792;4.372;2023-05-31T04:24:45;14.43;;;12.88;;
24008;SDS011;12217;50.792;4.372;2023-05-31T04:27:11;14.23;;;12.82;;
24008;SDS011;12217;50.792;4.372;2023-05-31T04:29:46;16.13;;;13.05;;
24008;SDS011;12217;50.792;4.372;2023-05-31T04:32:11;16.40;;;13.13;;
24008;SDS011;12217;50.792;4.372;2023-05-31T04:34:40;16.05;;;13.77;;
24008;SDS011;12217;50.792;4.372;2023-05-31T04:37:07;14.68;;;13.18;;
24008;SDS011;12217;50.792;4.372;2023-05-31T04:39:33;14.80;;;13.25;;
24008;SDS011;12217;50.792;4.372;2023-05-31T04:41:59;15.20;;;13.70;;
24008;SDS011;12217;50.792;4.372;2023-05-31T04:44:25;15.32;;;13.68;;
24008;SDS011;12217;50.792;4.372;2023-05-31T04:46:51;15.43;;;13.88;;
24008;SDS011;12217;50.792;4.372;2023-05-31T04:49:16;15.90;;;14.25;;
24008;SDS011;12217;50.792;4.372;2023-05-31T04:51:43;15.23;;;13.68;;
24008;SDS011;12217;50.792;4.372;2023-05-31T04:54:09;15.93;;;14.27;;
24008;SDS011;12217;50.792;4.372;2023-05-31T04:56:35;16.80;;;13.45;;
24008;SDS011;12217;50.792;4.372;2023-05-31T04:59:00;16.60;;;14.43;;
24008;SDS011;12217;50.792;4.372;2023-05-31T05:01:26;16.42;;;14.77;;
24008;SDS011;12217;50.792;4.372;2023-05-31T05:03:52;17.33;;;14.90;;
24008;SDS011;12217;50.792;4.372;2023-05-31T05:06:18;17.75;;;14.85;;
24008;SDS011;12217;50.792;4.372;2023-05-31T05:08:44;16.70;;;15.10;;
24008;SDS011;12217;50.792;4.372;2023-05-31T05:11:10;17.00;;;15.20;;
24008;SDS011;12217;50.792;4.372;2023-05-31T05:13:36;16.70;;;15.00;;
24008;SDS011;12217;50.792;4.372;2023-05-31T05:16:02;16.33;;;14.73;;
24008;SDS011;12217;50.792;4.372;2023-05-31T05:18:28;16.95;;;15.30;;
24008;SDS011;12217;50.792;4.372;2023-05-31T05:20:54;16.85;;;15.15;;
24008;SDS011;12217;50.792;4.372;2023-05-31T05:23:21;16.73;;;15.02;;
24008;SDS011;12217;50.792;4.372;2023-05-31T05:25:47;16.55;;;14.95;;
24008;SDS011;12217;50.792;4.372;2023-05-31T05:28:13;18.48;;;15.95;;
24008;SDS011;12217;50.792;4.372;2023-05-31T05:30:39;19.08;;;15.77;;
24008;SDS011;12217;50.792;4.372;2023-05-31T05:33:05;19.17;;;16.38;;
24008;SDS011;12217;50.792;4.372;2023-05-31T05:35:31;18.13;;;16.00;;
24008;SDS011;12217;50.792;4.372;2023-05-31T05:37:56;17.65;;;14.77;;
24008;SDS011;12217;50.792;4.372;2023-05-31T05:40:23;21.33;;;17.40;;
24008;SDS011;12217;50.792;4.372;2023-05-31T05:42:48;18.33;;;16.40;;
24008;SDS011;12217;50.792;4.372;2023-05-31T05:45:14;17.95;;;15.75;;
24008;SDS011;12217;50.792;4.372;2023-05-31T05:47:40;18.08;;;16.20;;
24008;SDS011;12217;50.792;4.372;2023-05-31T05:50:10;19.48;;;16.00;;
24008;SDS011;12217;50.792;4.372;2023-05-31T05:52:36;20.33;;;16.27;;
24008;SDS011;12217;50.792;4.372;2023-05-31T05:55:01;19.23;;;16.52;;
24008;SDS011;12217;50.792;4.372;2023-05-31T05:57:28;17.85;;;16.00;;
24008;SDS011;12217;50.792;4.372;2023-05-31T05:59:53;21.13;;;16.13;;
24008;SDS011;12217;50.792;4.372;2023-05-31T06:02:19;17.23;;;15.15;;
24008;SDS011;12217;50.792;4.372;2023-05-31T06:04:45;16.88;;;15.05;;
24008;SDS011;12217;50.792;4.372;2023-05-31T06:07:11;17.45;;;15.55;;
24008;SDS011;12217;50.792;4.372;2023-05-31T06:09:36;20.02;;;15.85;;
24008;SDS011;12217;50.792;4.372;2023-05-31T06:12:02;18.55;;;15.70;;
24008;SDS011;12217;50.792;4.372;2023-05-31T06:14:28;18.20;;;16.23;;
24008;SDS011;12217;50.792;4.372;2023-05-31T06:16:53;18.52;;;15.70;;
24008;SDS011;12217;50.792;4.372;2023-05-31T06:19:19;17.38;;;15.63;;
24008;SDS011;12217;50.792;4.372;2023-05-31T06:21:44;17.73;;;15.52;;
24008;SDS011;12217;50.792;4.372;2023-05-31T06:24:10;17.42;;;15.43;;
24008;SDS011;12217;50.792;4.372;2023-05-31T06:26:35;17.05;;;15.30;;
24008;SDS011;12217;50.792;4.372;2023-05-31T06:29:03;17.60;;;15.18;;
24008;SDS011;12217;50.792;4.372;2023-05-31T06:31:29;17.50;;;15.50;;
24008;SDS011;12217;50.792;4.372;2023-05-31T06:33:56;18.48;;;14.75;;
24008;SDS011;12217;50.792;4.372;2023-05-31T06:36:21;20.15;;;15.63;;
24008;SDS011;12217;50.792;4.372;2023-05-31T06:38:47;16.30;;;14.18;;
24008;SDS011;12217;50.792;4.372;2023-05-31T06:41:13;16.65;;;14.88;;
24008;SDS011;12217;50.792;4.372;2023-05-31T06:43:38;16.30;;;14.55;;
24008;SDS011;12217;50.792;4.372;2023-05-31T06:46:04;20.83;;;14.30;;
24008;SDS011;12217;50.792;4.372;2023-05-31T06:48:32;17.38;;;14.95;;
24008;SDS011;12217;50.792;4.372;2023-05-31T06:50:58;17.83;;;14.75;;
24008;SDS011;12217;50.792;4.372;2023-05-31T06:53:24;18.15;;;15.38;;
24008;SDS011;12217;50.792;4.372;2023-05-31T06:55:49;17.10;;;14.85;;
24008;SDS011;12217;50.792;4.372;2023-05-31T06:58:16;18.10;;;14.45;;
24008;SDS011;12217;50.792;4.372;2023-05-31T07:00:42;17.55;;;14.50;;
24008;SDS011;12217;50.792;4.372;2023-05-31T07:03:08;19.25;;;14.98;;
24008;SDS011;12217;50.792;4.372;2023-05-31T07:05:34;15.07;;;13.45;;
24008;SDS011;12217;50.792;4.372;2023-05-31T07:07:59;16.50;;;14.55;;
24008;SDS011;12217;50.792;4.372;2023-05-31T07:10:25;14.73;;;13.23;;
24008;SDS011;12217;50.792;4.372;2023-05-31T07:12:52;17.50;;;13.20;;
24008;SDS011;12217;50.792;4.372;2023-05-31T07:15:18;20.60;;;14.52;;
24008;SDS011;12217;50.792;4.372;2023-05-31T07:17:44;17.35;;;13.75;;
24008;SDS011;12217;50.792;4.372;2023-05-31T07:20:10;18.40;;;13.82;;
24008;SDS011;12217;50.792;4.372;2023-05-31T07:22:36;16.63;;;14.90;;
24008;SDS011;12217;50.792;4.372;2023-05-31T07:25:02;15.40;;;13.77;;
24008;SDS011;12217;50.792;4.372;2023-05-31T07:27:29;15.98;;;13.32;;
24008;SDS011;12217;50.792;4.372;2023-05-31T07:29:55;19.60;;;13.93;;
24008;SDS011;12217;50.792;4.372;2023-05-31T07:32:21;16.85;;;13.55;;
24008;SDS011;12217;50.792;4.372;2023-05-31T07:34:47;15.63;;;13.05;;
24008;SDS011;12217;50.792;4.372;2023-05-31T07:37:13;17.65;;;13.00;;
24008;SDS011;12217;50.792;4.372;2023-05-31T07:39:38;19.27;;;12.88;;
24008;SDS011;12217;50.792;4.372;2023-05-31T07:42:04;15.48;;;12.80;;
24008;SDS011;12217;50.792;4.372;2023-05-31T07:44:30;15.65;;;12.63;;
24008;SDS011;12217;50.792;4.372;2023-05-31T07:46:56;16.40;;;12.13;;
24008;SDS011;12217;50.792;4.372;2023-05-31T07:49:21;14.75;;;11.55;;
24008;SDS011;12217;50.792;4.372;2023-05-31T07:51:47;13.10;;;11.15;;
24008;SDS011;12217;50.792;4.372;2023-05-31T07:54:12;14.65;;;11.90;;
24008;SDS011;12217;50.792;4.372;2023-05-31T07:56:38;15.10;;;11.73;;
24008;SDS011;12217;50.792;4.372;2023-05-31T07:59:05;13.55;;;10.95;;
24008;SDS011;12217;50.792;4.372;2023-05-31T08:01:31;15.73;;;10.25;;
24008;SDS011;12217;50.792;4.372;2023-05-31T08:04:04;14.85;;;10.40;;
24008;SDS011;12217;50.792;4.372;2023-05-31T08:06:31;14.38;;;10.52;;
24008;SDS011;12217;50.792;4.372;2023-05-31T08:08:57;13.20;;;11.50;;
24008;SDS011;12217;50.792;4.372;2023-05-31T08:11:23;15.80;;;11.38;;
24008;SDS011;12217;50.792;4.372;2023-05-31T08:13:50;14.60;;;10.80;;
24008;SDS011;12217;50.792;4.372;2023-05-31T08:16:16;13.90;;;10.95;;
24008;SDS011;12217;50.792;4.372;2023-05-31T08:18:43;15.10;;;10.35;;
24008;SDS011;12217;50.792;4.372;2023-05-31T08:21:08;15.95;;;10.57;;
24008;SDS011;12217;50.792;4.372;2023-05-31T08:23:34;14.23;;;10.30;;
24008;SDS011;12217;50.792;4.372;2023-05-31T08:26:00;14.05;;;11.15;;
24008;SDS011;12217;50.792;4.372;2023-05-31T08:28:26;16.40;;;9.95;;
24008;SDS011;12217;50.792;4.372;2023-05-31T08:30:52;15.27;;;10.02;;
24008;SDS011;12217;50.792;4.372;2023-05-31T08:33:17;12.75;;;9.95;;
24008;SDS011;12217;50.792;4.372;2023-05-31T08:35:43;18.88;;;9.75;;
24008;SDS011;12217;50.792;4.372;2023-05-31T08:38:09;15.40;;;9.85;;
24008;SDS011;12217;50.792;4.372;2023-05-31T08:40:35;13.63;;;9.30;;
24008;SDS011;12217;50.792;4.372;2023-05-31T08:43:02;15.68;;;9.25;;
24008;SDS011;12217;50.792;4.372;2023-05-31T08:45:32;13.30;;;9.05;;
24008;SDS011;12217;50.792;4.372;2023-05-31T08:48:02;11.57;;;9.13;;
24008;SDS011;12217;50.792;4.372;2023-05-31T08:50:39;12.75;;;8.55;;
24008;SDS011;12217;50.792;4.372;2023-05-31T08:53:05;11.65;;;8.50;;
24008;SDS011;12217;50.792;4.372;2023-05-31T08:55:32;15.13;;;9.25;;
24008;SDS011;12217;50.792;4.372;2023-05-31T08:57:59;13.57;;;8.90;;
24008;SDS011;12217;50.792;4.372;2023-05-31T09:00:27;13.15;;;8.50;;
24008;SDS011;12217;50.792;4.372;2023-05-31T09:02:53;16.52;;;9.13;;
24008;SDS011;12217;50.792;4.372;2023-05-31T09:05:19;11.63;;;8.35;;
24008;SDS011;12217;50.792;4.372;2023-05-31T09:07:45;14.50;;;8.38;;
24008;SDS011;12217;50.792;4.372;2023-05-31T09:10:12;17.98;;;8.90;;
24008;SDS011;12217;50.792;4.372;2023-05-31T09:12:40;14.20;;;7.55;;
24008;SDS011;12217;50.792;4.372;2023-05-31T09:15:05;10.50;;;7.50;;
24008;SDS011;12217;50.792;4.372;2023-05-31T09:17:32;9.90;;;7.53;;
24008;SDS011;12217;50.792;4.372;2023-05-31T09:19:59;11.30;;;7.03;;
24008;SDS011;12217;50.792;4.372;2023-05-31T09:22:25;16.35;;;7.72;;
24008;SDS011;12217;50.792;4.372;2023-05-31T09:24:55;15.85;;;8.82;;
24008;SDS011;12217;50.792;4.372;2023-05-31T09:27:25;17.35;;;9.35;;
24008;SDS011;12217;50.792;4.372;2023-05-31T09:29:52;12.98;;;7.45;;
24008;SDS011;12217;50.792;4.372;2023-05-31T09:32:18;11.13;;;7.07;;
24008;SDS011;12217;50.792;4.372;2023-05-31T09:34:44;11.98;;;7.10;;
24008;SDS011;12217;50.792;4.372;2023-05-31T09:37:20;10.05;;;6.53;;
24008;SDS011;12217;50.792;4.372;2023-05-31T09:39:56;10.95;;;7.13;;
24008;SDS011;12217;50.792;4.372;2023-05-31T09:42:23;8.80;;;6.40;;
24008;SDS011;12217;50.792;4.372;2023-05-31T09:44:51;10.57;;;6.50;;
24008;SDS011;12217;50.792;4.372;2023-05-31T09:47:16;11.60;;;6.85;;
24008;SDS011;12217;50.792;4.372;2023-05-31T09:49:47;7.38;;;6.20;;
24008;SDS011;12217;50.792;4.372;2023-05-31T09:52:13;10.80;;;6.30;;
24008;SDS011;12217;50.792;4.372;2023-05-31T09:54:38;10.23;;;6.20;;
24008;SDS011;12217;50.792;4.372;2023-05-31T09:57:05;10.32;;;6.45;;
24008;SDS011;12217;50.792;4.372;2023-05-31T09:59:34;11.32;;;6.13;;
24008;SDS011;12217;50.792;4.372;2023-05-31T10:01:59;10.38;;;6.88;;
24008;SDS011;12217;50.792;4.372;2023-05-31T10:04:28;7.63;;;6.07;;
24008;SDS011;12217;50.792;4.372;2023-05-31T10:06:54;10.68;;;6.38;;
24008;SDS011;12217;50.792;4.372;2023-05-31T10:09:20;10.48;;;6.25;;
24008;SDS011;12217;50.792;4.372;2023-05-31T10:11:46;11.05;;;6.38;;
24008;SDS011;12217;50.792;4.372;2023-05-31T10:16:50;10.00;;;6.55;;
24008;SDS011;12217;50.792;4.372;2023-05-31T10:19:22;11.10;;;5.90;;
24008;SDS011;12217;50.792;4.372;2023-05-31T10:21:49;9.73;;;5.70;;
24008;SDS011;12217;50.792;4.372;2023-05-31T10:24:20;10.43;;;5.57;;
24008;SDS011;12217;50.792;4.372;2023-05-31T10:27:00;9.60;;;5.20;;
24008;SDS011;12217;50.792;4.372;2023-05-31T10:32:19;9.18;;;4.85;;
24008;SDS011;12217;50.792;4.372;2023-05-31T10:34:45;6.45;;;4.50;;
24008;SDS011;12217;50.792;4.372;2023-05-31T10:37:12;8.43;;;5.18;;
24008;SDS011;12217;50.792;4.372;2023-05-31T10:42:55;5.95;;;4.40;;
24008;SDS011;12217;50.792;4.372;2023-05-31T10:45:40;8.15;;;4.03;;
24008;SDS011;12217;50.792;4.372;2023-05-31T10:48:13;9.13;;;4.17;;
24008;SDS011;12217;50.792;4.372;2023-05-31T10:50:54;9.15;;;4.55;;
24008;SDS011;12217;50.792;4.372;2023-05-31T10:53:22;8.25;;;4.40;;
24008;SDS011;12217;50.792;4.372;2023-05-31T10:55:52;9.85;;;4.55;;
24008;SDS011;12217;50.792;4.372;2023-05-31T10:58:24;14.65;;;4.50;;
24008;SDS011;12217;50.792;4.372;2023-05-31T11:00:57;5.55;;;4.25;;
24008;SDS011;12217;50.792;4.372;2023-05-31T11:03:29;8.30;;;4.57;;
24008;SDS011;12217;50.792;4.372;2023-05-31T11:06:00;9.32;;;4.40;;
24008;SDS011;12217;50.792;4.372;2023-05-31T11:08:28;9.38;;;4.53;;
24008;SDS011;12217;50.792;4.372;2023-05-31T11:14:08;6.30;;;3.75;;
24008;SDS011;12217;50.792;4.372;2023-05-31T11:19:13;6.03;;;4.03;;
24008;SDS011;12217;50.792;4.372;2023-05-31T11:22:24;7.65;;;4.10;;
24008;SDS011;12217;50.792;4.372;2023-05-31T11:24:39;8.30;;;3.80;;
24008;SDS011;12217;50.792;4.372;2023-05-31T11:27:18;5.82;;;4.40;;
24008;SDS011;12217;50.792;4.372;2023-05-31T11:32:13;11.85;;;3.83;;
24008;SDS011;12217;50.792;4.372;2023-05-31T11:34:50;8.77;;;4.43;;
24008;SDS011;12217;50.792;4.372;2023-05-31T11:39:52;6.28;;;3.53;;
24008;SDS011;12217;50.792;4.372;2023-05-31T11:42:19;8.75;;;3.72;;
24008;SDS011;12217;50.792;4.372;2023-05-31T11:44:46;6.93;;;3.88;;
24008;SDS011;12217;50.792;4.372;2023-05-31T11:47:18;7.28;;;3.22;;
24008;SDS011;12217;50.792;4.372;2023-05-31T11:49:45;8.02;;;4.00;;
24008;SDS011;12217;50.792;4.372;2023-05-31T11:52:15;6.40;;;3.20;;
24008;SDS011;12217;50.792;4.372;2023-05-31T11:54:42;8.10;;;3.70;;
24008;SDS011;12217;50.792;4.372;2023-05-31T11:57:10;7.80;;;3.58;;
24008;SDS011;12217;50.792;4.372;2023-05-31T11:59:37;7.50;;;3.47;;
24008;SDS011;12217;50.792;4.372;2023-05-31T12:02:04;7.03;;;3.40;;
24008;SDS011;12217;50.792;4.372;2023-05-31T12:04:35;6.05;;;3.22;;
24008;SDS011;12217;50.792;4.372;2023-05-31T12:07:05;8.53;;;3.70;;
24008;SDS011;12217;50.792;4.372;2023-05-31T12:09:35;9.55;;;3.67;;
24008;SDS011;12217;50.792;4.372;2023-05-31T12:12:01;6.70;;;3.30;;
24008;SDS011;12217;50.792;4.372;2023-05-31T12:14:28;8.80;;;3.38;;
24008;SDS011;12217;50.792;4.372;2023-05-31T12:16:54;7.95;;;3.85;;
24008;SDS011;12217;50.792;4.372;2023-05-31T12:19:20;6.00;;;3.20;;
24008;SDS011;12217;50.792;4.372;2023-05-31T12:21:46;8.00;;;3.35;;
24008;SDS011;12217;50.792;4.372;2023-05-31T12:24:15;10.75;;;3.63;;
24008;SDS011;12217;50.792;4.372;2023-05-31T12:26:46;7.97;;;3.65;;
24008;SDS011;12217;50.792;4.372;2023-05-31T12:29:16;8.77;;;2.90;;
24008;SDS011;12217;50.792;4.372;2023-05-31T12:31:42;7.90;;;3.33;;
24008;SDS011;12217;50.792;4.372;2023-05-31T12:34:09;9.07;;;3.35;;
24008;SDS011;12217;50.792;4.372;2023-05-31T12:36:37;4.80;;;2.90;;
24008;SDS011;12217;50.792;4.372;2023-05-31T12:39:06;6.35;;;3.53;;
24008;SDS011;12217;50.792;4.372;2023-05-31T12:41:34;6.03;;;3.22;;
24008;SDS011;12217;50.792;4.372;2023-05-31T12:44:00;5.80;;;3.20;;
24008;SDS011;12217;50.792;4.372;2023-05-31T12:46:26;6.00;;;2.95;;
24008;SDS011;12217;50.792;4.372;2023-05-31T12:48:51;7.50;;;3.28;;
24008;SDS011;12217;50.792;4.372;2023-05-31T12:51:23;11.45;;;3.55;;
24008;SDS011;12217;50.792;4.372;2023-05-31T12:53:49;7.00;;;3.60;;
24008;SDS011;12217;50.792;4.372;2023-05-31T12:56:15;5.68;;;3.72;;
24008;SDS011;12217;50.792;4.372;2023-05-31T12:58:41;9.27;;;3.53;;
24008;SDS011;12217;50.792;4.372;2023-05-31T13:01:07;7.32;;;2.90;;
24008;SDS011;12217;50.792;4.372;2023-05-31T13:03:33;5.32;;;2.90;;
24008;SDS011;12217;50.792;4.372;2023-05-31T13:05:59;4.63;;;3.03;;
24008;SDS011;12217;50.792;4.372;2023-05-31T13:08:24;6.07;;;3.00;;
24008;SDS011;12217;50.792;4.372;2023-05-31T13:10:50;8.18;;;2.95;;
24008;SDS011;12217;50.792;4.372;2023-05-31T13:13:15;7.78;;;3.38;;
24008;SDS011;12217;50.792;4.372;2023-05-31T13:15:41;8.43;;;3.60;;
24008;SDS011;12217;50.792;4.372;2023-05-31T13:18:07;7.45;;;3.22;;
24008;SDS011;12217;50.792;4.372;2023-05-31T13:20:32;8.15;;;3.33;;
24008;SDS011;12217;50.792;4.372;2023-05-31T13:22:58;10.70;;;3.25;;
24008;SDS011;12217;50.792;4.372;2023-05-31T13:25:23;10.43;;;3.58;;
24008;SDS011;12217;50.792;4.372;2023-05-31T13:27:49;8.80;;;3.03;;
24008;SDS011;12217;50.792;4.372;2023-05-31T13:30:15;5.82;;;3.35;;
24008;SDS011;12217;50.792;4.372;2023-05-31T13:32:40;5.03;;;3.10;;
24008;SDS011;12217;50.792;4.372;2023-05-31T13:35:07;7.15;;;3.22;;
24008;SDS011;12217;50.792;4.372;2023-05-31T13:37:35;8.07;;;3.30;;
24008;SDS011;12217;50.792;4.372;2023-05-31T13:40:00;4.50;;;2.90;;
24008;SDS011;12217;50.792;4.372;2023-05-31T13:42:27;9.90;;;3.33;;
24008;SDS011;12217;50.792;4.372;2023-05-31T13:44:53;5.63;;;2.95;;
24008;SDS011;12217;50.792;4.372;2023-05-31T13:47:18;7.75;;;3.70;;
24008;SDS011;12217;50.792;4.372;2023-05-31T13:49:44;8.50;;;3.20;;
24008;SDS011;12217;50.792;4.372;2023-05-31T13:52:10;8.30;;;2.97;;
24008;SDS011;12217;50.792;4.372;2023-05-31T13:54:38;6.65;;;3.33;;
24008;SDS011;12217;50.792;4.372;2023-05-31T13:57:03;6.13;;;3.47;;
24008;SDS011;12217;50.792;4.372;2023-05-31T13:59:30;7.90;;;2.95;;
24008;SDS011;12217;50.792;4.372;2023-05-31T14:01:56;4.07;;;3.15;;
24008;SDS011;12217;50.792;4.372;2023-05-31T14:04:22;6.43;;;3.28;;
24008;SDS011;12217;50.792;4.372;2023-05-31T14:06:48;10.15;;;3.55;;
24008;SDS011;12217;50.792;4.372;2023-05-31T14:09:14;6.97;;;2.92;;
24008;SDS011;12217;50.792;4.372;2023-05-31T14:11:40;8.50;;;3.10;;
24008;SDS011;12217;50.792;4.372;2023-05-31T14:14:06;5.10;;;3.13;;
24008;SDS011;12217;50.792;4.372;2023-05-31T14:16:31;6.53;;;3.15;;
24008;SDS011;12217;50.792;4.372;2023-05-31T14:18:57;6.65;;;3.13;;
24008;SDS011;12217;50.792;4.372;2023-05-31T14:21:22;8.82;;;2.78;;
24008;SDS011;12217;50.792;4.372;2023-05-31T14:23:49;3.92;;;2.85;;
24008;SDS011;12217;50.792;4.372;2023-05-31T14:26:14;7.75;;;3.33;;
24008;SDS011;12217;50.792;4.372;2023-05-31T14:28:40;7.05;;;3.55;;
24008;SDS011;12217;50.792;4.372;2023-05-31T14:31:05;6.13;;;3.25;;
24008;SDS011;12217;50.792;4.372;2023-05-31T14:33:31;7.93;;;3.15;;
24008;SDS011;12217;50.792;4.372;2023-05-31T14:35:56;7.38;;;3.05;;
24008;SDS011;12217;50.792;4.372;2023-05-31T14:38:22;7.57;;;3.20;;
24008;SDS011;12217;50.792;4.372;2023-05-31T14:40:48;5.25;;;2.50;;
24008;SDS011;12217;50.792;4.372;2023-05-31T14:43:16;8.77;;;2.90;;
24008;SDS011;12217;50.792;4.372;2023-05-31T14:45:41;7.40;;;2.90;;
24008;SDS011;12217;50.792;4.372;2023-05-31T14:48:07;5.18;;;2.88;;
24008;SDS011;12217;50.792;4.372;2023-05-31T14:50:32;7.53;;;3.00;;
24008;SDS011;12217;50.792;4.372;2023-05-31T14:52:58;5.95;;;2.78;;
24008;SDS011;12217;50.792;4.372;2023-05-31T14:55:23;8.23;;;3.00;;
24008;SDS011;12217;50.792;4.372;2023-05-31T14:57:49;8.85;;;3.10;;
24008;SDS011;12217;50.792;4.372;2023-05-31T15:00:15;6.65;;;3.00;;
24008;SDS011;12217;50.792;4.372;2023-05-31T15:02:40;5.90;;;2.72;;